Time;durP1;ratioP1;P1;durP2;ratioP2;P2;SDS_P1;SDS_P2;PMS_P1;PMS_P2;Temp;Humidity;BMP_temperature;BMP_pressure;BME280_temperature;BME280_humidity;BME280_pressure;Samples;Min_cycle;Max_cycle;Signal;HPM_P1;HPM_P2
2023/05/24 05:25:16;;;;;;;13.35;9.55;;;;;;;;;;6184242;23;20032;-81
2023/05/24 05:36:03;;;;;;;16.88;10.70;;;;;;;;;;6152633;23;20033;-86
2023/05/24 05:38:29;;;;;;;12.07;10.27;;;;;;;;;;6145762;23;20013;-87
2023/05/24 05:40:55;;;;;;;13.88;10.77;;;;;;;;;;6118085;23;20017;-83
2023/05/24 05:43:21;;;;;;;16.05;10.30;;;;;;;;;;6155985;23;20012;-85
2023/05/24 05:45:48;;;;;;;14.23;9.95;;;;;;;;;;6150351;23;20816;-84
2023/05/24 05:48:14;;;;;;;15.00;10.35;;;;;;;;;;6127225;23;20013;-84
2023/05/24 05:50:40;;;;;;;17.05;9.50;;;;;;;;;;6113556;23;20013;-85
2023/05/24 05:53:06;;;;;;;17.13;11.18;;;;;;;;;;6151447;23;20025;-85
2023/05/24 05:55:32;;;;;;;14.82;10.32;;;;;;;;;;6152017;23;20013;-85
2023/05/24 05:57:58;;;;;;;15.07;11.40;;;;;;;;;;6151824;23;20437;-85
2023/05/24 06:00:24;;;;;;;15.75;11.85;;;;;;;;;;6147974;23;20017;-85
2023/05/24 06:02:50;;;;;;;14.55;10.70;;;;;;;;;;6152200;23;20052;-85
2023/05/24 06:05:16;;;;;;;17.35;11.23;;;;;;;;;;6153015;23;20028;-82
2023/05/24 06:07:42;;;;;;;18.75;11.68;;;;;;;;;;6155995;23;20010;-82
2023/05/24 06:10:08;;;;;;;13.73;10.20;;;;;;;;;;6142700;23;20010;-82
2023/05/24 06:12:34;;;;;;;16.13;11.30;;;;;;;;;;6155035;23;20013;-83
2023/05/24 06:15:00;;;;;;;16.83;11.75;;;;;;;;;;6143298;23;20125;-84
2023/05/24 06:17:27;;;;;;;16.60;10.60;;;;;;;;;;6155522;23;20065;-85
2023/05/24 06:19:53;;;;;;;14.73;11.38;;;;;;;;;;6152032;23;20013;-83
2023/05/24 06:22:20;;;;;;;17.52;11.43;;;;;;;;;;6150129;23;20009;-83
2023/05/24 06:56:29;;;;;;;13.52;8.98;;;;;;;;;;6203369;23;20408;-86
2023/05/24 06:58:56;;;;;;;11.90;9.30;;;;;;;;;;6186087;23;20088;-86
2023/05/24 07:01:22;;;;;;;11.85;8.93;;;;;;;;;;6185863;23;20024;-86
2023/05/24 07:03:48;;;;;;;11.27;9.25;;;;;;;;;;6185995;23;20760;-86
2023/05/24 07:06:15;;;;;;;15.82;9.10;;;;;;;;;;6185238;23;20345;-87
2023/05/24 07:08:41;;;;;;;13.23;9.30;;;;;;;;;;6185028;23;20008;-87
2023/05/24 07:11:08;;;;;;;11.85;9.50;;;;;;;;;;6185277;23;20040;-87
2023/05/24 07:13:34;;;;;;;11.05;9.73;;;;;;;;;;6188794;23;20048;-84
2023/05/24 07:16:00;;;;;;;17.15;10.32;;;;;;;;;;6217555;23;20009;-84
2023/05/24 07:18:26;;;;;;;13.85;9.77;;;;;;;;;;6189922;23;20040;-86
2023/05/24 07:20:53;;;;;;;12.35;9.25;;;;;;;;;;6215673;23;20017;-86
2023/05/24 07:23:19;;;;;;;13.25;9.43;;;;;;;;;;6189671;23;20008;-85
2023/05/24 07:25:45;;;;;;;11.95;8.50;;;;;;;;;;6189810;23;20004;-85
2023/05/24 07:28:14;;;;;;;14.95;10.02;;;;;;;;;;6188871;23;20471;-84
2023/05/24 07:30:40;;;;;;;14.77;9.35;;;;;;;;;;6186207;23;20012;-87
2023/05/24 07:33:06;;;;;;;13.23;9.43;;;;;;;;;;6187602;23;20769;-87
2023/05/24 07:35:32;;;;;;;12.88;9.90;;;;;;;;;;6185493;23;20036;-86
2023/05/24 07:37:58;;;;;;;15.82;10.23;;;;;;;;;;6184991;23;20012;-87
2023/05/24 07:40:25;;;;;;;19.52;9.90;;;;;;;;;;6185921;23;20062;-86
2023/05/24 07:42:51;;;;;;;14.60;10.43;;;;;;;;;;6187478;23;20016;-87
2023/05/24 07:45:17;;;;;;;13.48;9.60;;;;;;;;;;6185316;23;20032;-84
2023/05/24 07:47:43;;;;;;;15.80;9.48;;;;;;;;;;6185744;23;20008;-84
2023/05/24 07:50:10;;;;;;;21.65;9.57;;;;;;;;;;6184301;23;20012;-85
2023/05/24 08:04:20;;;;;;;12.93;9.25;;;;;;;;;;6196863;23;20100;-80
2023/05/24 09:05:37;;;;;;;14.52;10.80;;;;;;;;;;6209169;23;20118;-88
2023/05/24 09:08:03;;;;;;;18.00;11.93;;;;;;;;;;6187193;23;20099;-85
2023/05/24 09:10:32;;;;;;;17.52;11.02;;;;;;;;;;6214525;23;20001;-85
2023/05/24 09:13:01;;;;;;;20.02;11.18;;;;;;;;;;6212934;23;20004;-84
2023/05/24 09:15:27;;;;;;;13.60;9.63;;;;;;;;;;6212433;23;20015;-83
2023/05/24 09:17:53;;;;;;;14.48;10.68;;;;;;;;;;6186131;23;20039;-84
2023/05/24 13:51:18;;;;;;;9.68;5.57;;;;;;;;;;6202482;23;20028;-85
2023/05/24 13:53:46;;;;;;;10.60;5.93;;;;;;;;;;6186826;23;20008;-85
2023/05/24 13:56:37;;;;;;;9.23;5.28;;;;;;;;;;6187555;23;20052;-87
2023/05/24 13:59:04;;;;;;;10.52;5.65;;;;;;;;;;6188872;23;20321;-86
2023/05/24 14:01:39;;;;;;;9.80;4.75;;;;;;;;;;6188196;23;20013;-86
2023/05/24 14:07:16;;;;;;;10.35;5.22;;;;;;;;;;6214280;23;20024;-88
2023/05/24 18:34:26;;;;;;;6.95;4.93;;;;;;;;;;6179445;22;20036;-81
2023/05/24 20:03:00;;;;;;;;;;;;;;;;;;;;;
2023/05/24 20:17:50;;;;;;;10.07;5.32;;;;;;;;;;6071081;23;20033;-82
